createdAt,value
2017-12-01T00:00:14.989Z,0
2017-12-01T00:01:14.470Z,0
2017-12-01T00:02:14.743Z,0
2017-12-01T00:03:14.754Z,0
2017-12-01T00:04:14.763Z,0
2017-12-01T00:05:15.046Z,0
2017-12-01T00:06:14.795Z,0
2017-12-01T00:07:14.530Z,0
2017-12-01T00:08:15.069Z,0
2017-12-01T00:09:14.821Z,0
2017-12-01T00:10:14.565Z,0
2017-12-01T00:11:15.104Z,0
2017-12-01T00:12:15.117Z,0
2017-12-01T00:13:14.864Z,0
2017-12-01T00:14:14.605Z,0
2017-12-01T00:15:14.887Z,0
2017-12-01T00:16:15.159Z,0
2017-12-01T00:17:14.902Z,0
2017-12-01T00:18:15.176Z,0
2017-12-01T00:19:15.190Z,0
2017-12-01T00:20:15.202Z,0
2017-12-01T00:21:15.205Z,0
2017-12-01T00:22:14.419Z,0
2017-12-01T00:23:15.229Z,0
2017-12-01T00:24:15.030Z,0
2017-12-01T00:25:15.247Z,0
2017-12-01T00:26:15.264Z,0
2017-12-01T00:27:15.271Z,0
2017-12-01T00:28:15.284Z,0
2017-12-01T00:29:15.351Z,0
2017-12-01T00:30:15.303Z,0
2017-12-01T00:31:15.310Z,0
2017-12-01T00:32:15.052Z,0
2017-12-01T00:33:14.803Z,0
2017-12-01T00:34:15.346Z,0
2017-12-01T00:35:15.081Z,0
2017-12-01T00:36:15.370Z,0
2017-12-01T00:37:14.840Z,0
2017-12-01T00:38:15.390Z,0
2017-12-01T00:39:15.403Z,0
2017-12-01T00:40:15.410Z,0
2017-12-01T00:41:15.415Z,0
2017-12-01T00:42:15.155Z,0
2017-12-01T00:43:14.898Z,0
2017-12-01T00:44:15.178Z,0
2017-12-01T00:45:15.189Z,0
2017-12-01T00:46:15.461Z,0
2017-12-01T00:47:15.478Z,0
2017-12-01T00:48:15.486Z,0
2017-12-01T00:49:14.966Z,0
2017-12-01T00:50:15.019Z,0
2017-12-01T00:51:15.261Z,0
2017-12-01T00:52:15.523Z,0
2017-12-01T00:53:15.270Z,0
2017-12-01T00:54:15.570Z,0
2017-12-01T00:55:15.304Z,0
2017-12-01T00:56:15.305Z,0
2017-12-01T00:57:15.312Z,0
2017-12-01T00:58:15.319Z,0
2017-12-01T00:59:15.327Z,0
2017-12-01T01:00:15.341Z,0
2017-12-01T01:01:15.630Z,0
2017-12-01T01:02:15.362Z,0
2017-12-01T01:03:15.638Z,0
2017-12-01T01:04:15.126Z,0
2017-12-01T01:05:15.658Z,0
2017-12-01T01:06:15.134Z,0
2017-12-01T01:07:15.682Z,0
2017-12-01T01:08:15.689Z,0
2017-12-01T01:09:15.700Z,0
2017-12-01T01:10:15.702Z,0
2017-12-01T01:11:15.450Z,0
2017-12-01T01:12:15.728Z,0
2017-12-01T01:13:15.751Z,0
2017-12-01T01:14:15.746Z,0
2017-12-01T01:15:15.766Z,0
2017-12-01T01:16:15.506Z,0
2017-12-01T01:17:15.258Z,0
2017-12-01T01:18:15.786Z,0
2017-12-01T01:19:15.798Z,0
2017-12-01T01:20:15.812Z,0
2017-12-01T01:21:15.820Z,0
2017-12-01T01:22:15.560Z,0
2017-12-01T01:23:15.305Z,0
2017-12-01T01:24:15.846Z,0
2017-12-01T01:25:15.854Z,0
2017-12-01T01:26:15.603Z,0
2017-12-01T01:27:15.882Z,0
2017-12-01T01:28:15.622Z,0
2017-12-01T01:29:15.370Z,0
2017-12-01T01:30:15.644Z,0
2017-12-01T01:31:15.919Z,0
2017-12-01T01:32:15.665Z,0
2017-12-01T01:33:15.669Z,0
2017-12-01T01:34:15.687Z,0
2017-12-01T01:35:15.956Z,0
2017-12-01T01:36:15.702Z,0
2017-12-01T01:37:15.976Z,0
2017-12-01T01:38:15.988Z,0
2017-12-01T01:39:15.995Z,0
2017-12-01T01:40:16.008Z,0
2017-12-01T01:41:15.753Z,0
2017-12-01T01:42:16.018Z,0
2017-12-01T01:43:15.523Z,0
2017-12-01T01:44:16.047Z,0
2017-12-01T01:45:15.794Z,0
2017-12-01T01:46:15.798Z,0
2017-12-01T01:47:16.068Z,0
2017-12-01T01:48:15.815Z,0
2017-12-01T01:49:15.824Z,0
2017-12-01T01:50:15.573Z,0
2017-12-01T01:51:16.112Z,0
2017-12-01T01:52:16.126Z,0
2017-12-01T01:53:15.601Z,0
2017-12-01T01:54:16.142Z,0
2017-12-01T01:55:15.882Z,0
2017-12-01T01:56:15.906Z,0
2017-12-01T01:57:16.181Z,0
2017-12-01T01:58:16.183Z,0
2017-12-01T01:59:15.935Z,0
2017-12-01T02:00:16.205Z,0
2017-12-01T02:01:15.946Z,0
2017-12-01T02:02:15.959Z,0
2017-12-01T02:03:16.234Z,0
2017-12-01T02:04:15.984Z,0
2017-12-01T02:05:16.248Z,0
2017-12-01T02:06:16.270Z,0
2017-12-01T02:07:16.008Z,0
2017-12-01T02:08:16.024Z,0
2017-12-01T02:09:16.031Z,0
2017-12-01T02:10:16.030Z,0
2017-12-01T02:11:16.369Z,0
2017-12-01T02:12:16.382Z,0
2017-12-01T02:13:16.343Z,0
2017-12-01T02:14:16.351Z,0
2017-12-01T02:15:16.087Z,0
2017-12-01T02:16:15.826Z,0
2017-12-01T02:17:16.105Z,0
2017-12-01T02:18:16.108Z,0
2017-12-01T02:19:16.388Z,0
2017-12-01T02:20:16.130Z,0
2017-12-01T02:21:16.138Z,0
2017-12-01T02:22:16.428Z,0
2017-12-01T02:23:16.155Z,0
2017-12-01T02:24:16.459Z,0
2017-12-01T02:25:16.187Z,0
2017-12-01T02:26:16.466Z,0
2017-12-01T02:27:16.216Z,0
2017-12-01T02:28:16.208Z,0
2017-12-01T02:29:16.216Z,0
2017-12-01T02:30:16.501Z,0
2017-12-01T02:31:16.519Z,0
2017-12-01T02:32:15.994Z,0
2017-12-01T02:33:16.255Z,0
2017-12-01T02:34:16.531Z,0
2017-12-01T02:35:16.552Z,0
2017-12-01T02:36:16.555Z,0
2017-12-01T02:37:16.581Z,0
2017-12-01T02:38:16.586Z,0
2017-12-01T02:39:16.357Z,0
2017-12-01T02:40:16.634Z,0
2017-12-01T02:41:16.635Z,0
2017-12-01T02:42:16.626Z,0
2017-12-01T02:43:16.354Z,0
2017-12-01T02:44:16.641Z,0
2017-12-01T02:45:16.371Z,0
2017-12-01T02:46:16.685Z,0
2017-12-01T02:47:16.657Z,0
2017-12-01T02:48:16.409Z,0
2017-12-01T02:49:16.405Z,0
2017-12-01T02:50:16.421Z,0
2017-12-01T02:51:16.754Z,0
2017-12-01T02:52:16.719Z,0
2017-12-01T02:53:16.723Z,0
2017-12-01T02:54:16.729Z,0
2017-12-01T02:55:16.743Z,0
2017-12-01T02:56:16.482Z,0
2017-12-01T02:57:16.516Z,0
2017-12-01T02:58:16.771Z,0
2017-12-01T02:59:16.511Z,0
2017-12-01T03:00:16.784Z,0
2017-12-01T03:01:16.530Z,0
2017-12-01T03:02:16.535Z,0
2017-12-01T03:03:16.819Z,0
2017-12-01T03:04:16.561Z,0
2017-12-01T03:05:16.836Z,0
2017-12-01T03:06:16.839Z,0
2017-12-01T03:07:16.849Z,0
2017-12-01T03:08:16.598Z,0
2017-12-01T03:09:16.872Z,0
2017-12-01T03:10:16.888Z,0
2017-12-01T03:11:16.633Z,0
2017-12-01T03:12:16.644Z,0
2017-12-01T03:13:16.380Z,0
2017-12-01T03:14:16.653Z,0
2017-12-01T03:15:16.972Z,0
2017-12-01T03:16:16.669Z,0
2017-12-01T03:17:16.416Z,0
2017-12-01T03:18:16.427Z,0
2017-12-01T03:19:16.704Z,0
2017-12-01T03:20:16.716Z,0
2017-12-01T03:21:16.722Z,0
2017-12-01T03:22:16.736Z,0
2017-12-01T03:23:16.735Z,0
2017-12-01T03:24:16.741Z,0
2017-12-01T03:25:17.041Z,0
2017-12-01T03:26:17.031Z,0
2017-12-01T03:27:17.048Z,0
2017-12-01T03:28:17.056Z,0
2017-12-01T03:29:17.069Z,0
2017-12-01T03:30:16.547Z,0
2017-12-01T03:31:16.823Z,0
2017-12-01T03:32:16.564Z,0
2017-12-01T03:33:16.571Z,0
2017-12-01T03:34:16.850Z,0
2017-12-01T03:35:16.851Z,0
2017-12-01T03:36:16.873Z,0
2017-12-01T03:37:16.618Z,0
2017-12-01T03:38:17.152Z,0
2017-12-01T03:39:16.899Z,0
2017-12-01T03:40:16.907Z,0
2017-12-01T03:41:16.907Z,0
2017-12-01T03:42:16.650Z,0
2017-12-01T03:43:16.658Z,0
2017-12-01T03:44:17.203Z,0
2017-12-01T03:45:17.216Z,0
2017-12-01T03:46:16.954Z,0
2017-12-01T03:47:16.959Z,0
2017-12-01T03:48:17.244Z,0
2017-12-01T03:49:17.244Z,0
2017-12-01T03:50:16.995Z,0
2017-12-01T03:51:17.003Z,0
2017-12-01T03:52:17.280Z,0
2017-12-01T03:53:17.287Z,0
2017-12-01T03:54:16.771Z,0
2017-12-01T03:55:17.305Z,0
2017-12-01T03:56:17.319Z,0
2017-12-01T03:57:17.060Z,0
2017-12-01T03:58:17.338Z,0
2017-12-01T03:59:17.356Z,0
2017-12-01T04:00:17.141Z,0
2017-12-01T04:01:17.097Z,0
2017-12-01T04:02:17.103Z,0
2017-12-01T04:03:17.383Z,0
2017-12-01T04:04:16.857Z,0
2017-12-01T04:05:17.140Z,0
2017-12-01T04:06:16.880Z,0
2017-12-01T04:07:17.150Z,0
2017-12-01T04:08:16.894Z,0
2017-12-01T04:09:17.166Z,0
2017-12-01T04:10:17.450Z,0
2017-12-01T04:11:17.189Z,0
2017-12-01T04:12:17.471Z,0
2017-12-01T04:13:17.478Z,0
2017-12-01T04:14:17.218Z,0
2017-12-01T04:15:17.241Z,0
2017-12-01T04:16:17.510Z,0
2017-12-01T04:17:17.508Z,0
2017-12-01T04:18:17.518Z,0
2017-12-01T04:19:17.267Z,0
2017-12-01T04:20:17.532Z,0
2017-12-01T04:21:17.548Z,0
2017-12-01T04:22:17.290Z,0
2017-12-01T04:23:17.570Z,0
2017-12-01T04:24:17.579Z,0
2017-12-01T04:25:17.342Z,0
2017-12-01T04:26:17.588Z,0
2017-12-01T04:27:17.340Z,0
2017-12-01T04:28:17.613Z,0
2017-12-01T04:29:17.365Z,0
2017-12-01T04:30:17.692Z,0
2017-12-01T04:31:17.111Z,0
2017-12-01T04:32:17.387Z,0
2017-12-01T04:33:17.670Z,0
2017-12-01T04:34:17.666Z,0
2017-12-01T04:35:17.679Z,0
2017-12-01T04:36:17.422Z,0
2017-12-01T04:37:17.436Z,0
2017-12-01T04:38:17.711Z,0
2017-12-01T04:39:17.718Z,0
2017-12-01T04:40:17.463Z,0
2017-12-01T04:41:17.735Z,0
2017-12-01T04:42:17.783Z,0
2017-12-01T04:43:17.753Z,0
2017-12-01T04:44:17.501Z,0
2017-12-01T04:45:17.504Z,0
2017-12-01T04:46:17.517Z,0
2017-12-01T04:47:17.784Z,0
2017-12-01T04:48:17.263Z,0
2017-12-01T04:49:17.808Z,0
2017-12-01T04:50:17.546Z,0
2017-12-01T04:51:17.559Z,0
2017-12-01T04:52:17.838Z,0
2017-12-01T04:53:17.570Z,0
2017-12-01T04:54:17.590Z,0
2017-12-01T04:55:17.601Z,0
2017-12-01T04:56:17.607Z,0
2017-12-01T04:57:17.882Z,0
2017-12-01T04:58:17.900Z,0
2017-12-01T04:59:17.899Z,0
2017-12-01T05:00:17.636Z,0
2017-12-01T05:01:17.656Z,0
2017-12-01T05:02:17.389Z,0
2017-12-01T05:03:17.405Z,0
2017-12-01T05:04:17.675Z,0
2017-12-01T05:05:17.975Z,0
2017-12-01T05:06:17.972Z,0
2017-12-01T05:07:17.980Z,0
2017-12-01T05:08:17.985Z,0
2017-12-01T05:09:17.988Z,0
2017-12-01T05:10:17.728Z,0
2017-12-01T05:11:18.004Z,0
2017-12-01T05:12:17.533Z,0
2017-12-01T05:13:18.023Z,0
2017-12-01T05:14:17.513Z,0
2017-12-01T05:15:18.050Z,0
2017-12-01T05:16:18.058Z,0
2017-12-01T05:17:18.059Z,0
2017-12-01T05:18:18.072Z,0
2017-12-01T05:19:18.081Z,0
2017-12-01T05:20:17.823Z,0
2017-12-01T05:21:17.831Z,0
2017-12-01T05:22:18.131Z,0
2017-12-01T05:23:17.850Z,0
2017-12-01T05:24:18.148Z,0
2017-12-01T05:25:18.126Z,0
2017-12-01T05:26:18.144Z,0
2017-12-01T05:27:17.619Z,0
2017-12-01T05:28:18.161Z,0
2017-12-01T05:29:18.177Z,0
2017-12-01T05:30:18.183Z,0
2017-12-01T05:31:17.938Z,0
2017-12-01T05:32:17.669Z,0
2017-12-01T05:33:17.936Z,0
2017-12-01T05:34:17.678Z,0
2017-12-01T05:35:17.960Z,0
2017-12-01T05:36:18.249Z,0
2017-12-01T05:37:18.240Z,0
2017-12-01T05:38:18.245Z,0
2017-12-01T05:39:18.257Z,0
2017-12-01T05:40:18.003Z,0
2017-12-01T05:41:18.004Z,0
2017-12-01T05:42:18.106Z,0
2017-12-01T05:43:18.290Z,0
2017-12-01T05:44:18.040Z,0
2017-12-01T05:45:17.787Z,0
2017-12-01T05:46:17.785Z,0
2017-12-01T05:47:17.532Z,0
2017-12-01T05:48:18.067Z,0
2017-12-01T05:49:18.081Z,0
2017-12-01T05:50:18.094Z,0
2017-12-01T05:51:18.102Z,0
2017-12-01T05:52:18.115Z,0
2017-12-01T05:53:18.120Z,0
2017-12-01T05:54:18.127Z,0
2017-12-01T05:55:18.138Z,0
2017-12-01T05:56:18.145Z,0
2017-12-01T05:57:18.425Z,0
2017-12-01T05:58:18.182Z,0
2017-12-01T05:59:18.440Z,0
2017-12-01T06:00:18.450Z,0
2017-12-01T06:01:18.181Z,0
2017-12-01T06:02:18.464Z,0
2017-12-01T06:03:18.475Z,0
2017-12-01T06:04:18.219Z,0
2017-12-01T06:05:18.495Z,0
2017-12-01T06:06:18.502Z,0
2017-12-01T06:07:18.511Z,0
2017-12-01T06:08:18.522Z,0
2017-12-01T06:09:18.534Z,0
2017-12-01T06:10:18.544Z,0
2017-12-01T06:11:18.564Z,0
2017-12-01T06:12:18.284Z,0
2017-12-01T06:13:18.559Z,0
2017-12-01T06:14:18.317Z,0
2017-12-01T06:15:18.577Z,0
2017-12-01T06:16:18.318Z,0
2017-12-01T06:17:18.605Z,0
2017-12-01T06:18:18.606Z,0
2017-12-01T06:19:18.612Z,0
2017-12-01T06:20:18.096Z,0
2017-12-01T06:21:18.628Z,0
2017-12-01T06:22:18.368Z,0
2017-12-01T06:23:18.384Z,0
2017-12-01T06:24:18.666Z,0
2017-12-01T06:25:18.456Z,0
2017-12-01T06:26:18.416Z,0
2017-12-01T06:27:18.417Z,0
2017-12-01T06:28:18.692Z,0
2017-12-01T06:29:18.700Z,0
2017-12-01T06:30:18.452Z,4
2017-12-01T06:31:18.723Z,4
2017-12-01T06:32:18.480Z,0
2017-12-01T06:33:18.492Z,0
2017-12-01T06:34:18.755Z,4
2017-12-01T06:35:18.754Z,4
2017-12-01T06:36:18.499Z,4
2017-12-01T06:37:18.244Z,0
2017-12-01T06:38:18.783Z,4
2017-12-01T06:39:18.527Z,4
2017-12-01T06:40:18.534Z,4
2017-12-01T06:41:18.547Z,4
2017-12-01T06:42:18.814Z,8
2017-12-01T06:43:18.571Z,4
2017-12-01T06:44:18.572Z,8
2017-12-01T06:45:18.579Z,8
2017-12-01T06:46:18.598Z,8
2017-12-01T06:47:18.867Z,8
2017-12-01T06:48:18.880Z,12
2017-12-01T06:49:18.617Z,12
2017-12-01T06:50:18.688Z,12
2017-12-01T06:51:18.636Z,12
2017-12-01T06:52:18.918Z,16
2017-12-01T06:53:18.927Z,16
2017-12-01T06:54:18.977Z,16
2017-12-01T06:55:18.403Z,20
2017-12-01T06:56:18.675Z,16
2017-12-01T06:57:18.688Z,20
2017-12-01T06:58:18.692Z,20
2017-12-01T06:59:18.968Z,24
2017-12-01T07:00:18.979Z,24
2017-12-01T07:01:18.715Z,28
2017-12-01T07:02:18.993Z,32
2017-12-01T07:03:18.482Z,36
2017-12-01T07:04:18.481Z,32
2017-12-01T07:05:19.123Z,36
2017-12-01T07:06:18.765Z,36
2017-12-01T07:07:18.776Z,40
2017-12-01T07:08:18.788Z,40
2017-12-01T07:09:18.527Z,40
2017-12-01T07:10:18.543Z,44
2017-12-01T07:11:19.081Z,48
2017-12-01T07:12:18.565Z,48
2017-12-01T07:13:19.141Z,52
2017-12-01T07:14:18.569Z,52
2017-12-01T07:15:18.848Z,56
2017-12-01T07:16:19.123Z,64
2017-12-01T07:17:18.861Z,64
2017-12-01T07:18:19.149Z,68
2017-12-01T07:19:18.878Z,72
2017-12-01T07:20:18.893Z,72
2017-12-01T07:21:18.906Z,76
2017-12-01T07:22:18.676Z,76
2017-12-01T07:23:18.925Z,80
2017-12-01T07:24:19.266Z,80
2017-12-01T07:25:18.691Z,80
2017-12-01T07:26:18.944Z,80
2017-12-01T07:27:19.239Z,80
2017-12-01T07:28:18.987Z,84
2017-12-01T07:29:19.237Z,84
2017-12-01T07:30:18.987Z,92
2017-12-01T07:31:18.729Z,96
2017-12-01T07:32:19.005Z,96
2017-12-01T07:33:19.277Z,104
2017-12-01T07:34:19.286Z,108
2017-12-01T07:35:18.753Z,116
2017-12-01T07:36:19.036Z,124
2017-12-01T07:37:19.058Z,132
2017-12-01T07:38:19.046Z,132
2017-12-01T07:39:19.326Z,132
2017-12-01T07:40:19.084Z,132
2017-12-01T07:41:19.347Z,136
2017-12-01T07:42:19.352Z,144
2017-12-01T07:43:19.096Z,148
2017-12-01T07:44:19.379Z,156
2017-12-01T07:45:19.377Z,164
2017-12-01T07:46:19.195Z,172
2017-12-01T07:47:19.404Z,180
2017-12-01T07:48:19.412Z,184
2017-12-01T07:49:19.161Z,192
2017-12-01T07:50:19.163Z,192
2017-12-01T07:51:19.166Z,192
2017-12-01T07:52:18.930Z,192
2017-12-01T07:53:19.453Z,188
2017-12-01T07:54:19.472Z,184
2017-12-01T07:55:19.209Z,188
2017-12-01T07:56:19.217Z,196
2017-12-01T07:57:18.951Z,216
2017-12-01T07:58:19.514Z,236
2017-12-01T07:59:19.514Z,248
2017-12-01T08:00:19.516Z,248
2017-12-01T08:01:19.265Z,244
2017-12-01T08:02:19.329Z,252
2017-12-01T08:03:19.283Z,244
2017-12-01T08:04:19.581Z,240
2017-12-01T08:05:19.308Z,232
2017-12-01T08:06:19.313Z,220
2017-12-01T08:07:19.399Z,212
2017-12-01T08:08:19.618Z,200
2017-12-01T08:09:19.622Z,196
2017-12-01T08:10:19.336Z,200
2017-12-01T08:11:19.351Z,208
2017-12-01T08:12:19.353Z,220
2017-12-01T08:13:19.649Z,232
2017-12-01T08:14:19.649Z,244
2017-12-01T08:15:19.660Z,248
2017-12-01T08:16:19.133Z,240
2017-12-01T08:17:19.673Z,236
2017-12-01T08:18:19.414Z,236
2017-12-01T08:19:19.434Z,240
2017-12-01T08:20:19.433Z,260
2017-12-01T08:21:19.711Z,276
2017-12-01T08:22:19.731Z,288
2017-12-01T08:23:19.200Z,280
2017-12-01T08:24:19.731Z,268
2017-12-01T08:25:19.754Z,256
2017-12-01T08:26:19.756Z,252
2017-12-01T08:27:19.772Z,248
2017-12-01T08:28:19.508Z,248
2017-12-01T08:29:19.783Z,248
2017-12-01T08:30:19.260Z,248
2017-12-01T08:31:19.807Z,256
2017-12-01T08:32:19.825Z,276
2017-12-01T08:33:19.891Z,292
2017-12-01T08:34:19.561Z,300
2017-12-01T08:35:19.840Z,308
2017-12-01T08:36:19.588Z,332
2017-12-01T08:37:19.872Z,348
2017-12-01T08:38:19.341Z,340
2017-12-01T08:39:19.616Z,336
2017-12-01T08:40:19.636Z,348
2017-12-01T08:41:19.631Z,372
2017-12-01T08:42:19.650Z,396
2017-12-01T08:43:19.918Z,420
2017-12-01T08:44:19.950Z,440
2017-12-01T08:45:19.932Z,444
2017-12-01T08:46:19.948Z,432
2017-12-01T08:47:19.685Z,428
2017-12-01T08:48:19.972Z,420
2017-12-01T08:49:19.706Z,416
2017-12-01T08:50:19.719Z,416
2017-12-01T08:51:19.729Z,420
2017-12-01T08:52:19.201Z,444
2017-12-01T08:53:19.743Z,468
2017-12-01T08:54:19.758Z,464
2017-12-01T08:55:20.033Z,456
2017-12-01T08:56:20.084Z,460
2017-12-01T08:57:19.779Z,480
2017-12-01T08:58:20.116Z,500
2017-12-01T08:59:19.813Z,504
2017-12-01T09:00:19.820Z,492
2017-12-01T09:01:20.091Z,492
2017-12-01T09:02:20.103Z,488
2017-12-01T09:03:19.832Z,476
2017-12-01T09:04:19.844Z,456
2017-12-01T09:05:19.856Z,448
2017-12-01T09:06:20.131Z,460
2017-12-01T09:07:19.611Z,476
2017-12-01T09:08:19.620Z,480
2017-12-01T09:09:20.163Z,476
2017-12-01T09:10:19.911Z,472
2017-12-01T09:11:20.187Z,472
2017-12-01T09:12:19.662Z,468
2017-12-01T09:13:19.939Z,460
2017-12-01T09:14:20.211Z,464
2017-12-01T09:15:20.225Z,456
2017-12-01T09:16:19.711Z,440
2017-12-01T09:17:19.975Z,428
2017-12-01T09:18:19.981Z,388
2017-12-01T09:19:20.256Z,356
2017-12-01T09:20:20.297Z,328
2017-12-01T09:21:20.331Z,316
2017-12-01T09:22:20.291Z,304
2017-12-01T09:23:20.289Z,296
2017-12-01T09:24:20.052Z,296
2017-12-01T09:25:19.777Z,304
2017-12-01T09:26:20.334Z,316
2017-12-01T09:27:20.343Z,324
2017-12-01T09:28:20.361Z,328
2017-12-01T09:29:20.091Z,324
2017-12-01T09:30:20.167Z,320
2017-12-01T09:31:20.375Z,316
2017-12-01T09:32:20.123Z,308
2017-12-01T09:33:20.129Z,308
2017-12-01T09:34:20.407Z,308
2017-12-01T09:35:20.154Z,312
2017-12-01T09:36:19.904Z,312
2017-12-01T09:37:20.444Z,316
2017-12-01T09:38:20.185Z,316
2017-12-01T09:39:20.456Z,316
2017-12-01T09:40:19.934Z,312
2017-12-01T09:41:19.961Z,312
2017-12-01T09:42:20.484Z,308
2017-12-01T09:43:20.499Z,308
2017-12-01T09:44:20.239Z,308
2017-12-01T09:45:20.250Z,308
2017-12-01T09:46:20.529Z,312
2017-12-01T09:47:20.266Z,312
2017-12-01T09:48:20.550Z,312
2017-12-01T09:49:20.561Z,312
2017-12-01T09:50:20.569Z,316
2017-12-01T09:51:20.584Z,316
2017-12-01T09:52:20.604Z,320
2017-12-01T09:53:20.592Z,324
2017-12-01T09:54:20.335Z,320
2017-12-01T09:55:20.351Z,312
2017-12-01T09:56:20.657Z,304
2017-12-01T09:57:20.641Z,300
2017-12-01T09:58:20.644Z,296
2017-12-01T09:59:20.388Z,296
2017-12-01T10:00:20.668Z,292
2017-12-01T10:01:20.415Z,296
2017-12-01T10:02:20.427Z,296
2017-12-01T10:03:20.455Z,300
2017-12-01T10:04:20.719Z,304
2017-12-01T10:05:20.719Z,312
2017-12-01T10:06:20.500Z,320
2017-12-01T10:07:20.468Z,332
2017-12-01T10:08:20.486Z,344
2017-12-01T10:09:19.958Z,356
2017-12-01T10:10:20.502Z,364
2017-12-01T10:11:20.544Z,368
2017-12-01T10:12:20.778Z,400
2017-12-01T10:13:20.536Z,412
2017-12-01T10:14:20.547Z,440
2017-12-01T10:15:20.278Z,456
2017-12-01T10:16:20.831Z,460
2017-12-01T10:17:20.830Z,472
2017-12-01T10:18:20.583Z,484
2017-12-01T10:19:20.852Z,508
2017-12-01T10:21:20.873Z,540
2017-12-01T10:22:20.885Z,596
2017-12-01T10:23:20.103Z,648
2017-12-01T10:24:20.918Z,704
2017-12-01T10:25:20.657Z,736
2017-12-01T10:26:20.921Z,740
2017-12-01T10:27:20.936Z,752
2017-12-01T10:28:20.947Z,772
2017-12-01T10:29:20.957Z,828
2017-12-01T10:30:20.969Z,860
2017-12-01T10:31:20.970Z,804
2017-12-01T10:32:20.731Z,748
2017-12-01T10:33:20.995Z,756
2017-12-01T10:34:21.009Z,808
2017-12-01T10:35:20.753Z,844
2017-12-01T10:36:20.907Z,844
2017-12-01T10:37:21.032Z,836
2017-12-01T10:38:21.045Z,836
2017-12-01T10:39:21.055Z,788
2017-12-01T10:40:20.802Z,756
2017-12-01T10:41:21.123Z,828
2017-12-01T10:42:20.823Z,940
2017-12-01T10:43:20.833Z,916
2017-12-01T10:44:21.108Z,852
2017-12-01T10:45:21.119Z,856
2017-12-01T10:46:21.121Z,892
2017-12-01T10:47:21.140Z,900
2017-12-01T10:48:20.887Z,888
2017-12-01T10:49:20.889Z,872
2017-12-01T10:50:20.914Z,860
2017-12-01T10:51:20.920Z,836
2017-12-01T10:52:20.986Z,852
2017-12-01T10:53:21.204Z,888
2017-12-01T10:54:21.210Z,904
2017-12-01T10:55:21.231Z,920
2017-12-01T10:56:21.234Z,952
2017-12-01T10:57:20.984Z,944
2017-12-01T10:58:20.725Z,948
2017-12-01T10:59:21.264Z,984
2017-12-01T11:00:21.011Z,1000
2017-12-01T11:01:21.299Z,996
2017-12-01T11:02:21.038Z,972
2017-12-01T11:03:21.308Z,972
2017-12-01T11:04:21.324Z,960
2017-12-01T11:05:21.068Z,964
2017-12-01T11:06:21.067Z,1024
2017-12-01T11:07:21.093Z,1076
2017-12-01T11:08:21.357Z,1060
2017-12-01T11:09:21.366Z,1096
2017-12-01T11:10:21.115Z,1160
2017-12-01T11:11:21.604Z,1176
2017-12-01T11:12:21.408Z,1088
2017-12-01T11:13:21.434Z,1040
2017-12-01T11:14:21.158Z,1176
2017-12-01T11:15:21.177Z,1288
2017-12-01T11:16:21.494Z,1248
2017-12-01T11:17:21.188Z,1244
2017-12-01T11:18:20.932Z,1200
2017-12-01T11:19:21.477Z,1084
2017-12-01T11:20:21.244Z,1052
2017-12-01T11:21:21.495Z,1092
2017-12-01T11:22:21.510Z,1076
2017-12-01T11:23:21.610Z,1008
2017-12-01T11:24:21.259Z,984
2017-12-01T11:25:21.540Z,984
2017-12-01T11:26:21.553Z,988
2017-12-01T11:27:21.292Z,976
2017-12-01T11:28:21.305Z,980
2017-12-01T11:29:21.316Z,1032
2017-12-01T11:30:21.320Z,1044
2017-12-01T11:31:21.609Z,1000
2017-12-01T11:32:21.616Z,980
2017-12-01T11:33:21.633Z,1020
2017-12-01T11:34:21.629Z,1004
2017-12-01T11:35:21.640Z,944
2017-12-01T11:36:21.712Z,904
2017-12-01T11:37:21.665Z,852
2017-12-01T11:38:21.410Z,836
2017-12-01T11:39:21.688Z,848
2017-12-01T11:40:21.703Z,852
2017-12-01T11:41:21.439Z,876
2017-12-01T11:42:21.482Z,916
2017-12-01T11:43:21.747Z,908
2017-12-01T11:44:21.503Z,872
2017-12-01T11:45:21.761Z,896
2017-12-01T11:46:21.766Z,956
2017-12-01T11:47:21.776Z,964
2017-12-01T11:48:21.520Z,952
2017-12-01T11:49:21.269Z,912
2017-12-01T11:50:21.825Z,840
2017-12-01T11:51:21.842Z,788
2017-12-01T11:52:21.840Z,756
2017-12-01T11:53:21.923Z,736
2017-12-01T11:54:21.588Z,724
2017-12-01T11:55:21.872Z,728
2017-12-01T11:56:21.613Z,760
2017-12-01T11:57:21.620Z,816
2017-12-01T11:58:21.628Z,888
2017-12-01T11:59:21.506Z,956
2017-12-01T12:00:21.936Z,972
2017-12-01T12:01:21.399Z,944
2017-12-01T12:02:21.406Z,900
2017-12-01T12:03:21.748Z,872
2017-12-01T12:04:21.734Z,860
2017-12-01T12:05:21.977Z,864
2017-12-01T12:06:21.722Z,868
2017-12-01T12:07:21.987Z,852
2017-12-01T12:08:22.010Z,840
2017-12-01T12:09:22.021Z,844
2017-12-01T12:10:22.166Z,852
2017-12-01T12:11:22.133Z,864
2017-12-01T12:12:21.519Z,880
2017-12-01T12:13:22.074Z,880
2017-12-01T12:14:22.082Z,864
2017-12-01T12:15:21.824Z,852
2017-12-01T12:16:22.096Z,840
2017-12-01T12:17:21.844Z,832
2017-12-01T12:18:22.116Z,816
2017-12-01T12:19:21.858Z,812
2017-12-01T12:20:22.149Z,804
2017-12-01T12:21:21.882Z,796
2017-12-01T12:22:22.159Z,780
2017-12-01T12:23:21.904Z,756
2017-12-01T12:24:22.085Z,740
2017-12-01T12:25:21.923Z,736
2017-12-01T12:26:22.211Z,744
2017-12-01T12:27:21.952Z,784
2017-12-01T12:28:21.689Z,820
2017-12-01T12:29:21.974Z,836
2017-12-01T12:30:22.026Z,844
2017-12-01T12:31:21.732Z,860
2017-12-01T12:32:22.283Z,880
2017-12-01T12:33:22.291Z,888
2017-12-01T12:34:22.299Z,888
2017-12-01T12:35:22.303Z,892
2017-12-01T12:36:22.317Z,892
2017-12-01T12:37:22.064Z,892
2017-12-01T12:38:22.074Z,888
2017-12-01T12:39:22.350Z,860
2017-12-01T12:40:22.098Z,804
2017-12-01T12:41:22.368Z,796
2017-12-01T12:42:22.118Z,780
2017-12-01T12:43:22.397Z,712
2017-12-01T12:44:21.870Z,844
2017-12-01T12:45:22.152Z,904
2017-12-01T12:46:21.632Z,940
2017-12-01T12:47:22.565Z,908
2017-12-01T12:48:22.182Z,860
2017-12-01T12:49:22.459Z,932
2017-12-01T12:50:22.213Z,988
2017-12-01T12:51:22.220Z,868
2017-12-01T12:52:22.222Z,840
2017-12-01T12:53:22.560Z,880
2017-12-01T12:54:22.257Z,896
2017-12-01T12:55:22.541Z,820
2017-12-01T12:56:22.546Z,796
2017-12-01T12:57:22.587Z,884
2017-12-01T12:58:22.029Z,848
2017-12-01T12:59:22.580Z,736
2017-12-01T13:00:22.591Z,732
2017-12-01T13:01:22.612Z,804
2017-12-01T13:02:22.621Z,780
2017-12-01T13:03:22.617Z,708
2017-12-01T13:04:22.643Z,696
2017-12-01T13:05:22.648Z,780
2017-12-01T13:06:22.661Z,776
2017-12-01T13:07:22.665Z,720
2017-12-01T13:08:22.675Z,728
2017-12-01T13:09:22.425Z,720
2017-12-01T13:10:22.701Z,732
2017-12-01T13:11:22.187Z,728
2017-12-01T13:12:22.458Z,688
2017-12-01T13:13:22.481Z,656
2017-12-01T13:14:22.258Z,672
2017-12-01T13:15:22.774Z,664
2017-12-01T13:16:22.761Z,628
2017-12-01T13:17:22.521Z,596
2017-12-01T13:18:21.995Z,580
2017-12-01T13:19:22.803Z,572
2017-12-01T13:20:22.815Z,544
2017-12-01T13:21:22.829Z,540
2017-12-01T13:22:22.630Z,572
2017-12-01T13:23:22.858Z,572
2017-12-01T13:24:22.599Z,552
2017-12-01T13:25:22.896Z,528
2017-12-01T13:26:22.622Z,508
2017-12-01T13:27:22.622Z,512
2017-12-01T13:28:22.908Z,480
2017-12-01T13:29:22.649Z,492
2017-12-01T13:30:22.928Z,520
2017-12-01T13:31:22.672Z,480
2017-12-01T13:32:23.011Z,432
2017-12-01T13:33:22.698Z,424
2017-12-01T13:34:22.983Z,444
2017-12-01T13:35:22.998Z,440
2017-12-01T13:36:22.474Z,432
2017-12-01T13:37:23.095Z,436
2017-12-01T13:38:22.762Z,436
2017-12-01T13:39:23.043Z,416
2017-12-01T13:40:23.046Z,404
2017-12-01T13:41:22.789Z,388
2017-12-01T13:42:23.071Z,368
2017-12-01T13:43:22.817Z,360
2017-12-01T13:44:22.562Z,376
2017-12-01T13:45:22.840Z,372
2017-12-01T13:46:22.847Z,360
2017-12-01T13:47:23.130Z,360
2017-12-01T13:48:22.876Z,368
2017-12-01T13:49:22.889Z,352
2017-12-01T13:50:22.894Z,344
2017-12-01T13:51:22.932Z,344
2017-12-01T13:52:22.919Z,340
2017-12-01T13:53:23.197Z,344
2017-12-01T13:54:23.284Z,352
2017-12-01T13:55:23.220Z,360
2017-12-01T13:56:23.041Z,396
2017-12-01T13:57:22.985Z,412
2017-12-01T13:58:23.261Z,412
2017-12-01T13:59:22.740Z,380
2017-12-01T14:00:23.277Z,372
2017-12-01T14:01:23.290Z,388
2017-12-01T14:02:23.040Z,392
2017-12-01T14:03:23.054Z,388
2017-12-01T14:04:23.061Z,372
2017-12-01T14:05:23.343Z,368
2017-12-01T14:06:23.355Z,364
2017-12-01T14:07:23.103Z,360
2017-12-01T14:08:23.386Z,356
2017-12-01T14:09:22.858Z,348
2017-12-01T14:10:22.891Z,352
2017-12-01T14:11:23.483Z,356
2017-12-01T14:12:22.893Z,360
2017-12-01T14:13:23.438Z,352
2017-12-01T14:14:23.179Z,340
2017-12-01T14:15:23.195Z,332